createdAt,value
2023-03-26T00:02:23.567Z,8.74
2023-03-26T00:04:53.175Z,8.83
2023-03-26T00:07:21.008Z,8.95
2023-03-26T00:09:48.741Z,8.90
2023-03-26T00:12:16.507Z,8.99
2023-03-26T00:14:44.797Z,8.96
2023-03-26T00:17:12.459Z,8.95
2023-03-26T00:19:41.396Z,8.89
2023-03-26T00:22:11.073Z,8.80
2023-03-26T00:24:39.533Z,8.85
2023-03-26T00:27:08.742Z,8.84
2023-03-26T00:29:36.536Z,8.87
2023-03-26T00:32:04.961Z,8.79
2023-03-26T00:34:34.286Z,8.89
2023-03-26T00:37:03.335Z,8.91
2023-03-26T00:39:35.622Z,8.99
2023-03-26T00:42:06.799Z,8.93
2023-03-26T00:44:34.758Z,8.78
2023-03-26T00:47:03.578Z,8.79
2023-03-26T00:49:31.961Z,8.82
2023-03-26T00:51:59.616Z,8.88
2023-03-26T00:54:28.670Z,8.83
2023-03-26T00:56:56.384Z,8.76
2023-03-26T00:59:24.217Z,8.72
2023-03-26T01:01:54.884Z,8.71
2023-03-26T01:04:27.554Z,8.80
2023-03-26T01:06:58.467Z,8.84
2023-03-26T01:09:35.621Z,8.91
2023-03-26T01:12:06.937Z,8.91
2023-03-26T01:14:34.876Z,8.79
2023-03-26T01:17:04.127Z,8.82
2023-03-26T01:19:38.982Z,8.80
2023-03-26T01:22:09.586Z,8.82
2023-03-26T01:24:39.206Z,8.76
2023-03-26T01:27:19.254Z,8.75
2023-03-26T01:29:54.110Z,8.79
2023-03-26T01:32:40.348Z,8.71
2023-03-26T01:35:20.041Z,8.76
2023-03-26T01:37:58.692Z,8.77
2023-03-26T01:40:38.642Z,8.75
2023-03-26T01:43:13.828Z,8.69
2023-03-26T01:45:44.814Z,8.72
2023-03-26T01:48:13.634Z,8.75
2023-03-26T01:50:41.386Z,8.70
2023-03-26T01:53:11.702Z,8.66
2023-03-26T01:55:53.843Z,8.78
2023-03-26T01:58:30.490Z,8.76
2023-03-26T02:01:07.235Z,8.79
2023-03-26T02:03:43.524Z,8.85
2023-03-26T02:06:18.094Z,8.82
2023-03-26T02:08:53.003Z,8.72
2023-03-26T02:11:23.321Z,8.72
2023-03-26T02:13:52.926Z,8.71
2023-03-26T02:16:21.472Z,8.65
2023-03-26T02:18:51.198Z,8.68
2023-03-26T02:21:22.099Z,8.70
2023-03-26T02:23:57.524Z,8.57
2023-03-26T02:26:26.706Z,8.58
2023-03-26T02:28:54.329Z,8.54
2023-03-26T02:31:22.173Z,8.58
2023-03-26T02:33:49.845Z,8.63
2023-03-26T02:36:24.240Z,8.60
2023-03-26T02:38:52.462Z,8.56
2023-03-26T02:41:20.442Z,8.47
2023-03-26T02:43:49.729Z,8.53
2023-03-26T02:46:17.538Z,8.60
2023-03-26T02:48:45.380Z,8.56
2023-03-26T02:51:13.047Z,8.49
2023-03-26T02:53:41.204Z,8.54
2023-03-26T02:56:10.927Z,8.47
2023-03-26T02:58:38.596Z,8.49
2023-03-26T03:01:07.840Z,8.43
2023-03-26T03:03:36.315Z,8.53
2023-03-26T03:06:04.077Z,8.58
2023-03-26T03:08:31.721Z,8.60
2023-03-26T03:11:01.194Z,8.64
2023-03-26T03:13:29.438Z,8.59
2023-03-26T03:15:57.398Z,8.60
2023-03-26T03:18:26.682Z,8.55
2023-03-26T03:20:54.843Z,8.58
2023-03-26T03:23:22.510Z,8.63
2023-03-26T03:25:52.368Z,8.65
2023-03-26T03:28:20.355Z,8.73
2023-03-26T03:30:48.953Z,8.70
2023-03-26T03:33:19.371Z,8.62
2023-03-26T03:35:49.394Z,8.52
2023-03-26T03:38:19.080Z,8.45
2023-03-26T03:40:47.118Z,8.48
2023-03-26T03:43:14.808Z,8.50
2023-03-26T03:45:42.424Z,8.47
2023-03-26T03:48:10.206Z,8.41
2023-03-26T03:50:38.087Z,8.51
2023-03-26T03:53:06.994Z,8.52
2023-03-26T03:55:38.247Z,8.50
2023-03-26T03:58:09.052Z,8.45
2023-03-26T04:00:38.163Z,8.44
2023-03-26T04:03:06.478Z,8.40
2023-03-26T04:05:34.656Z,8.30
2023-03-26T04:08:02.493Z,8.27
2023-03-26T04:10:31.525Z,8.25
2023-03-26T04:12:59.286Z,8.33
2023-03-26T04:15:26.929Z,8.37
2023-03-26T04:17:54.609Z,8.41
2023-03-26T04:20:23.197Z,8.26
2023-03-26T04:22:50.897Z,8.27
2023-03-26T04:25:18.532Z,8.26
2023-03-26T04:27:48.128Z,8.28
2023-03-26T04:30:22.168Z,8.24
2023-03-26T04:32:52.306Z,8.23
2023-03-26T04:35:20.556Z,8.29
2023-03-26T04:37:48.313Z,8.31
2023-03-26T04:40:18.318Z,8.34
2023-03-26T04:42:47.216Z,8.35
2023-03-26T04:45:16.340Z,8.35
2023-03-26T04:47:48.813Z,8.33
2023-03-26T04:50:17.885Z,8.28
2023-03-26T04:52:46.259Z,8.32
2023-03-26T04:55:21.789Z,8.26
2023-03-26T04:57:54.721Z,8.36
2023-03-26T05:00:22.994Z,8.37
2023-03-26T05:02:51.009Z,8.38
2023-03-26T05:05:19.000Z,8.37
2023-03-26T05:07:46.825Z,8.47
2023-03-26T05:10:15.612Z,8.48
2023-03-26T05:12:43.370Z,8.40
2023-03-26T05:15:14.629Z,8.36
2023-03-26T05:17:42.825Z,8.42
2023-03-26T05:20:20.550Z,8.45
2023-03-26T05:22:48.881Z,8.44
2023-03-26T05:25:17.133Z,8.43
2023-03-26T05:27:45.181Z,8.39
2023-03-26T05:30:17.047Z,8.46
2023-03-26T05:32:44.904Z,8.54
2023-03-26T05:35:12.642Z,8.52
2023-03-26T05:37:40.540Z,8.50
2023-03-26T05:40:12.015Z,8.51
2023-03-26T05:42:39.902Z,8.57
2023-03-26T05:45:09.414Z,8.57
2023-03-26T05:47:38.810Z,8.54
2023-03-26T05:50:09.149Z,8.55
2023-03-26T05:52:37.036Z,8.47
2023-03-26T05:55:05.380Z,8.52
2023-03-26T05:57:33.181Z,8.57
2023-03-26T06:00:01.009Z,8.61
2023-03-26T06:02:29.437Z,8.69
2023-03-26T06:04:58.559Z,8.64
2023-03-26T06:07:27.154Z,8.67
2023-03-26T06:09:54.938Z,8.74
2023-03-26T06:12:22.609Z,8.76
2023-03-26T06:14:50.220Z,8.80
2023-03-26T06:17:17.996Z,8.71
2023-03-26T06:19:45.582Z,8.67
2023-03-26T06:22:15.820Z,8.69
2023-03-26T06:24:44.766Z,8.62
2023-03-26T06:27:13.009Z,8.74
2023-03-26T06:29:40.818Z,8.74
2023-03-26T06:32:18.853Z,8.76
2023-03-26T06:34:48.214Z,8.89
2023-03-26T06:37:17.521Z,8.89
2023-03-26T06:39:45.537Z,8.92
2023-03-26T06:42:15.598Z,8.92
2023-03-26T06:44:43.468Z,8.93
2023-03-26T06:47:11.281Z,8.78
2023-03-26T06:49:39.359Z,8.75
2023-03-26T06:52:07.202Z,8.72
2023-03-26T06:54:36.484Z,8.76
2023-03-26T06:57:05.281Z,8.82
2023-03-26T06:59:33.127Z,8.79
2023-03-26T07:02:00.888Z,8.82
2023-03-26T07:04:28.549Z,8.84
2023-03-26T07:06:58.771Z,8.86
2023-03-26T07:09:30.215Z,8.92
2023-03-26T07:11:59.336Z,8.94
2023-03-26T07:14:27.933Z,9.09
2023-03-26T07:16:55.592Z,9.22
2023-03-26T07:19:23.636Z,9.24
2023-03-26T07:21:51.929Z,9.29
2023-03-26T07:24:20.622Z,9.29
2023-03-26T07:26:55.267Z,9.31
2023-03-26T07:29:34.579Z,9.38
2023-03-26T07:32:16.190Z,9.45
2023-03-26T07:34:53.289Z,9.27
2023-03-26T07:37:36.592Z,9.11
2023-03-26T07:40:12.494Z,9.11
2023-03-26T07:42:54.093Z,9.25
2023-03-26T07:45:33.912Z,9.38
2023-03-26T07:48:03.267Z,9.48
2023-03-26T07:50:31.519Z,9.41
2023-03-26T07:52:59.823Z,9.41
2023-03-26T07:55:28.356Z,9.46
2023-03-26T07:58:09.471Z,9.57
2023-03-26T08:00:43.510Z,9.58
2023-03-26T08:03:27.800Z,9.71
2023-03-26T08:06:10.367Z,9.73
2023-03-26T08:08:48.370Z,9.84
2023-03-26T08:11:28.619Z,9.86
2023-03-26T08:14:06.795Z,9.82
2023-03-26T08:16:39.868Z,9.61
2023-03-26T08:19:24.326Z,9.61
2023-03-26T08:21:56.527Z,9.72
2023-03-26T08:24:33.696Z,9.75
2023-03-26T08:27:14.143Z,9.78
2023-03-26T08:29:52.109Z,9.83
2023-03-26T08:32:21.861Z,9.92
2023-03-26T08:34:49.606Z,9.96
2023-03-26T08:37:17.376Z,9.95
2023-03-26T08:39:44.988Z,9.96
2023-03-26T08:42:40.430Z,9.95
2023-03-26T08:45:52.773Z,9.92
2023-03-26T08:49:12.702Z,10.00
2023-03-26T08:52:25.542Z,10.09
2023-03-26T08:55:22.986Z,10.14
2023-03-26T08:58:37.096Z,10.15
2023-03-26T09:01:45.361Z,10.22
2023-03-26T09:04:46.421Z,10.21
2023-03-26T09:07:39.839Z,10.14
2023-03-26T09:10:47.098Z,10.06
2023-03-26T09:13:36.808Z,10.01
2023-03-26T09:16:38.293Z,10.01
2023-03-26T09:19:48.839Z,9.93
2023-03-26T09:22:51.290Z,9.88
2023-03-26T09:25:39.684Z,9.87
2023-03-26T09:28:53.392Z,9.90
2023-03-26T09:31:42.094Z,9.91
2023-03-26T09:34:28.987Z,9.94
2023-03-26T09:37:18.910Z,9.97
2023-03-26T09:40:00.763Z,10.02
2023-03-26T09:42:38.734Z,10.03
2023-03-26T09:45:33.153Z,10.03
2023-03-26T09:48:26.727Z,10.07
2023-03-26T09:51:26.741Z,10.10
2023-03-26T09:54:24.905Z,10.11
2023-03-26T09:57:03.098Z,10.12
2023-03-26T09:59:42.237Z,10.09
2023-03-26T10:02:45.379Z,10.03
2023-03-26T10:05:34.286Z,10.07
2023-03-26T10:08:30.864Z,10.08
2023-03-26T10:11:10.214Z,10.10
2023-03-26T10:13:52.235Z,10.15
2023-03-26T10:16:29.409Z,10.18
2023-03-26T10:19:13.581Z,10.11
2023-03-26T10:21:46.984Z,10.12
2023-03-26T10:24:28.995Z,10.18
2023-03-26T10:27:11.654Z,10.28
2023-03-26T10:30:24.396Z,10.34
2023-03-26T10:33:02.069Z,10.38
2023-03-26T10:35:41.090Z,10.28
2023-03-26T10:38:16.439Z,10.31
2023-03-26T10:40:55.921Z,10.36
2023-03-26T10:44:08.858Z,10.40
2023-03-26T10:47:02.659Z,10.54
2023-03-26T10:49:57.105Z,10.50
2023-03-26T10:52:30.782Z,10.43
2023-03-26T10:55:05.012Z,10.42
2023-03-26T10:57:42.161Z,10.46
2023-03-26T11:00:24.868Z,10.60
2023-03-26T11:03:10.350Z,10.59
2023-03-26T11:05:50.325Z,10.57
2023-03-26T11:08:32.006Z,10.50
2023-03-26T11:11:12.002Z,10.66
2023-03-26T11:13:48.513Z,10.77
2023-03-26T11:16:23.288Z,10.78
2023-03-26T11:18:55.305Z,10.80
2023-03-26T11:21:27.584Z,10.76
2023-03-26T11:24:12.217Z,10.87
2023-03-26T11:26:49.937Z,10.92
2023-03-26T11:29:33.792Z,10.98
2023-03-26T11:32:06.700Z,10.99
2023-03-26T11:34:38.705Z,11.22
2023-03-26T11:37:15.019Z,11.35
2023-03-26T11:39:49.456Z,11.41
2023-03-26T11:42:19.543Z,11.39
2023-03-26T11:44:51.167Z,11.43
2023-03-26T11:47:24.456Z,11.40
2023-03-26T11:49:55.867Z,11.36
2023-03-26T11:52:23.529Z,11.33
2023-03-26T11:54:51.331Z,11.26
2023-03-26T11:57:23.512Z,11.21
2023-03-26T11:59:57.963Z,11.24
2023-03-26T12:02:33.140Z,11.22
2023-03-26T12:05:18.039Z,11.25
2023-03-26T12:07:57.379Z,11.24
2023-03-26T12:10:29.784Z,11.28
2023-03-26T12:13:02.506Z,11.27
2023-03-26T12:15:32.046Z,11.17
2023-03-26T12:18:24.166Z,11.16
2023-03-26T12:21:04.480Z,11.16
2023-03-26T12:23:39.533Z,11.22
2023-03-26T12:26:15.804Z,11.08
2023-03-26T12:28:48.581Z,11.02
2023-03-26T12:31:19.314Z,11.03
2023-03-26T12:34:05.897Z,11.08
2023-03-26T12:36:35.936Z,11.08
2023-03-26T12:40:09.912Z,10.97
2023-03-26T12:44:49.271Z,10.97
2023-03-26T12:45:20.996Z,10.99
2023-03-26T12:48:00.393Z,11.11
2023-03-26T12:50:42.979Z,11.15
2023-03-26T12:53:32.856Z,11.09
2023-03-26T12:56:02.223Z,11.13
2023-03-26T12:58:55.740Z,11.12
2023-03-26T13:01:35.315Z,10.99
2023-03-26T13:04:18.306Z,10.97
2023-03-26T13:07:01.729Z,10.96
2023-03-26T13:09:43.308Z,10.97
2023-03-26T13:12:26.271Z,10.98
2023-03-26T13:15:14.112Z,11.01
2023-03-26T13:17:49.165Z,11.03
2023-03-26T13:20:22.655Z,10.97
2023-03-26T13:23:03.308Z,10.92
2023-03-26T13:25:39.724Z,10.87
2023-03-26T13:28:24.662Z,10.87
2023-03-26T13:31:03.646Z,10.89
2023-03-26T13:33:45.216Z,10.86
2023-03-26T13:36:23.995Z,10.77
2023-03-26T13:39:15.826Z,10.76
2023-03-26T13:41:57.567Z,10.65
2023-03-26T13:44:34.880Z,10.60
2023-03-26T13:47:05.843Z,10.56
2023-03-26T13:49:39.684Z,10.59
2023-03-26T13:52:12.283Z,10.57
2023-03-26T13:54:49.667Z,10.49
2023-03-26T13:57:25.413Z,10.44
2023-03-26T13:59:57.554Z,10.47
2023-03-26T14:02:31.992Z,10.43
2023-03-26T14:05:08.635Z,10.50
2023-03-26T14:07:44.619Z,10.54
2023-03-26T14:10:18.779Z,10.51
2023-03-26T14:12:53.615Z,10.53
2023-03-26T14:15:27.753Z,10.46
2023-03-26T14:18:05.913Z,10.46
2023-03-26T14:21:01.206Z,10.52
2023-03-26T14:23:59.657Z,10.47
2023-03-26T14:27:01.004Z,10.48
2023-03-26T14:29:56.357Z,10.49
2023-03-26T14:32:46.867Z,10.40
2023-03-26T14:35:27.381Z,10.41
2023-03-26T14:38:22.134Z,10.55
2023-03-26T14:40:58.880Z,10.51
2023-03-26T14:43:49.783Z,10.48
2023-03-26T14:46:30.192Z,10.55
2023-03-26T14:49:21.484Z,10.66
2023-03-26T14:52:02.416Z,10.68
2023-03-26T14:54:34.221Z,10.69
2023-03-26T14:57:39.826Z,10.60
2023-03-26T15:00:38.438Z,10.64
2023-03-26T15:03:49.186Z,10.52
2023-03-26T15:06:50.523Z,10.39
2023-03-26T15:09:55.357Z,10.39
2023-03-26T15:12:38.100Z,10.27
2023-03-26T15:15:37.767Z,10.28
2023-03-26T15:18:28.677Z,10.31
2023-03-26T15:21:26.633Z,10.22
2023-03-26T15:24:34.822Z,10.06
2023-03-26T15:27:26.727Z,10.03
2023-03-26T15:30:24.962Z,10.00
2023-03-26T15:33:35.246Z,10.00
2023-03-26T15:36:50.953Z,10.02
2023-03-26T15:39:59.326Z,9.98
2023-03-26T15:42:38.406Z,9.97
2023-03-26T15:45:32.709Z,9.98
2023-03-26T15:48:19.454Z,9.97
2023-03-26T15:50:55.819Z,10.01
2023-03-26T15:53:38.271Z,9.81
2023-03-26T15:56:17.685Z,9.73
2023-03-26T15:58:53.624Z,9.75
2023-03-26T16:01:34.025Z,9.73
2023-03-26T16:04:19.067Z,9.81
2023-03-26T16:06:58.405Z,9.79
2023-03-26T16:09:56.358Z,9.70
2023-03-26T16:12:31.248Z,9.69
2023-03-26T16:15:27.452Z,9.69
2023-03-26T16:18:33.065Z,9.69
2023-03-26T16:21:32.161Z,9.73
2023-03-26T16:24:20.342Z,9.62
2023-03-26T16:27:00.762Z,9.53
2023-03-26T16:29:30.391Z,9.50
2023-03-26T16:32:07.114Z,9.45
2023-03-26T16:34:41.996Z,9.39
2023-03-26T16:37:37.476Z,9.28
2023-03-26T16:40:29.370Z,9.27
2023-03-26T16:43:07.387Z,9.23
2023-03-26T16:45:40.772Z,9.20
2023-03-26T16:48:19.474Z,9.22
2023-03-26T16:50:56.711Z,9.31
2023-03-26T16:53:35.978Z,9.29
2023-03-26T16:56:12.743Z,9.25
2023-03-26T16:58:54.632Z,9.27
2023-03-26T17:01:32.728Z,9.27
2023-03-26T17:04:05.792Z,9.17
2023-03-26T17:07:15.370Z,9.05
2023-03-26T17:09:55.618Z,9.04
2023-03-26T17:12:35.740Z,9.09
2023-03-26T17:15:14.575Z,9.14
2023-03-26T17:17:56.890Z,9.05
2023-03-26T17:20:33.285Z,9.00
2023-03-26T17:23:14.806Z,9.00
2023-03-26T17:25:55.788Z,8.95
2023-03-26T17:28:35.376Z,8.85
2023-03-26T17:31:06.740Z,8.84
2023-03-26T17:33:36.892Z,8.84
2023-03-26T17:36:30.717Z,8.86
2023-03-26T17:39:02.628Z,8.78
2023-03-26T17:42:11.405Z,8.81
2023-03-26T17:44:48.403Z,8.76
2023-03-26T17:47:24.888Z,8.76
2023-03-26T17:50:00.711Z,8.71
2023-03-26T17:52:41.685Z,8.74
2023-03-26T17:55:10.777Z,8.50
2023-03-26T17:57:45.733Z,8.51
2023-03-26T18:00:19.274Z,8.59
2023-03-26T18:02:55.914Z,8.54
2023-03-26T18:05:27.554Z,8.46
2023-03-26T18:08:34.327Z,8.44
2023-03-26T18:11:17.686Z,8.42
2023-03-26T18:14:34.465Z,8.38
2023-03-26T18:17:03.425Z,8.25
2023-03-26T18:19:47.523Z,8.34
2023-03-26T18:22:20.629Z,8.26
2023-03-26T18:24:48.770Z,8.21
2023-03-26T18:27:19.412Z,8.17
2023-03-26T18:30:02.867Z,8.20
2023-03-26T18:32:33.502Z,8.16
2023-03-26T18:35:13.472Z,8.18
2023-03-26T18:40:16.827Z,8.23
2023-03-26T18:42:46.656Z,8.16
2023-03-26T18:45:25.683Z,8.05
2023-03-26T18:47:55.507Z,7.84
2023-03-26T18:50:27.732Z,7.73
2023-03-26T18:52:58.142Z,7.80
2023-03-26T18:55:29.077Z,7.85
2023-03-26T18:57:57.656Z,7.90
2023-03-26T19:00:31.224Z,7.78
2023-03-26T19:03:05.952Z,7.79
2023-03-26T19:05:35.973Z,7.60
2023-03-26T19:08:06.958Z,7.66
2023-03-26T19:10:34.849Z,7.69
2023-03-26T19:13:04.102Z,7.62
2023-03-26T19:15:35.534Z,7.58
2023-03-26T19:18:09.764Z,7.53
2023-03-26T19:20:41.816Z,7.42
2023-03-26T19:23:14.207Z,7.28
2023-03-26T19:25:44.779Z,7.09
2023-03-26T19:28:18.988Z,7.14
2023-03-26T19:30:48.721Z,7.13
2023-03-26T19:33:18.868Z,7.27
2023-03-26T19:35:52.112Z,7.28
2023-03-26T19:38:24.589Z,7.24
2023-03-26T19:40:54.189Z,7.05
2023-03-26T19:43:22.804Z,7.07
2023-03-26T19:46:00.601Z,7.02
2023-03-26T19:48:45.343Z,6.99
2023-03-26T19:51:20.924Z,6.88
2023-03-26T19:53:54.250Z,6.78
2023-03-26T19:56:23.332Z,6.91
2023-03-26T19:58:51.594Z,6.91
2023-03-26T20:01:22.825Z,6.73
2023-03-26T20:03:53.037Z,6.77
2023-03-26T20:06:30.841Z,6.63
2023-03-26T20:09:06.069Z,6.60
2023-03-26T20:11:37.906Z,6.64
2023-03-26T20:14:13.056Z,6.64
2023-03-26T20:16:44.982Z,6.64
2023-03-26T20:19:14.297Z,6.58
2023-03-26T20:21:43.296Z,6.46
2023-03-26T20:24:12.902Z,6.38
2023-03-26T20:26:40.760Z,6.45
2023-03-26T20:29:08.655Z,6.50
2023-03-26T20:31:37.456Z,6.61
2023-03-26T20:34:14.494Z,6.52
2023-03-26T20:36:42.294Z,6.39
2023-03-26T20:39:10.176Z,6.36
2023-03-26T20:41:42.733Z,6.45
2023-03-26T20:44:13.595Z,6.43
2023-03-26T20:46:42.552Z,6.34
2023-03-26T20:49:12.624Z,6.32
2023-03-26T20:51:41.827Z,6.30
2023-03-26T20:54:22.930Z,6.37
2023-03-26T20:56:50.757Z,6.52
2023-03-26T20:59:22.517Z,6.50
2023-03-26T21:01:51.918Z,6.42
2023-03-26T21:04:22.505Z,6.38
2023-03-26T21:06:53.221Z,6.46
2023-03-26T21:09:25.248Z,6.38
2023-03-26T21:12:00.324Z,6.22
2023-03-26T21:14:33.313Z,6.36
2023-03-26T21:17:02.359Z,6.26
2023-03-26T21:19:34.367Z,6.32
2023-03-26T21:22:14.676Z,6.25
2023-03-26T21:24:58.212Z,6.10
2023-03-26T21:27:34.352Z,6.03
2023-03-26T21:30:02.686Z,5.88
2023-03-26T21:32:32.066Z,5.84
2023-03-26T21:35:03.368Z,5.82
2023-03-26T21:37:32.134Z,5.88
2023-03-26T21:40:08.212Z,5.95
2023-03-26T21:42:36.483Z,5.98
2023-03-26T21:45:05.459Z,5.74
2023-03-26T21:47:33.752Z,5.71
2023-03-26T21:50:03.325Z,5.81
2023-03-26T21:52:31.768Z,5.82
2023-03-26T21:55:01.299Z,5.63
2023-03-26T21:57:42.341Z,5.60
2023-03-26T22:00:15.452Z,5.66
2023-03-26T22:03:03.693Z,5.59
2023-03-26T22:05:41.210Z,5.59
2023-03-26T22:08:25.252Z,5.52
2023-03-26T22:10:53.041Z,5.53
2023-03-26T22:13:20.983Z,5.57
2023-03-26T22:15:49.498Z,5.50
2023-03-26T22:18:21.079Z,5.44
2023-03-26T22:20:51.039Z,5.50
2023-03-26T22:23:18.672Z,5.60
2023-03-26T22:25:47.397Z,5.51
2023-03-26T22:28:15.524Z,5.51
2023-03-26T22:30:43.198Z,5.47
2023-03-26T22:33:11.941Z,5.48
2023-03-26T22:35:42.014Z,5.49
2023-03-26T22:38:11.644Z,5.54
2023-03-26T22:40:39.686Z,5.54
2023-03-26T22:43:07.355Z,5.46
2023-03-26T22:45:34.980Z,5.42
2023-03-26T22:48:04.476Z,5.51
2023-03-26T22:50:32.836Z,5.50
2023-03-26T22:53:00.665Z,5.48
2023-03-26T22:55:30.209Z,5.49
2023-03-26T22:57:57.953Z,5.48
2023-03-26T23:00:26.355Z,5.44
2023-03-26T23:02:55.851Z,5.30
2023-03-26T23:05:23.686Z,5.37
2023-03-26T23:07:52.105Z,5.44
2023-03-26T23:10:21.542Z,5.40
2023-03-26T23:12:50.440Z,5.30
2023-03-26T23:15:20.567Z,5.29
2023-03-26T23:17:54.465Z,5.28
2023-03-26T23:20:22.711Z,5.09
2023-03-26T23:22:50.627Z,5.21
2023-03-26T23:25:19.794Z,5.23
2023-03-26T23:27:48.278Z,5.24
2023-03-26T23:30:17.831Z,5.09
2023-03-26T23:32:45.492Z,5.08
2023-03-26T23:35:13.112Z,5.03
2023-03-26T23:37:42.201Z,5.11
2023-03-26T23:40:11.569Z,5.14
2023-03-26T23:42:39.208Z,5.05
2023-03-26T23:45:08.433Z,4.93
2023-03-26T23:47:42.235Z,4.98
2023-03-26T23:50:11.551Z,4.94
2023-03-26T23:52:39.382Z,4.77
2023-03-26T23:55:08.123Z,4.88
2023-03-26T23:57:36.956Z,4.84
